LRSV/SCV METAR and TAF weather

Enter ICAO airport designator
Station Type Date Time Source
LRSV METAR 2019/02/20 23:30 UTC NOAA

LRSV 202330Z 26008KT CAVOK 03/M01 Q1019


Station Type Date Time Source
LRSV Decoded METAR 2019/02/20 23:30 UTC NOAA

Suceava / Salcea, Romania (LRSV) 47-39N 026-15E 351M
Feb 20, 2019 - 06:30 PM EST / 2019.02.20 2330 UTC
Wind: from the W (260 degrees) at 9 MPH (8 KT):0
Visibility: greater than 7 mile(s):0
Temperature: 37 F (3 C)
Dew Point: 30 F (-1 C)
Relative Humidity: 74%
Pressure (altimeter): 30.09 in. Hg (1019 hPa)
ob: LRSV 202330Z 26008KT CAVOK 03/M01 Q1019
cycle: 23

Station Type Date Time Source
LRSV TAF 2014/07/19 18:48 UTC NOAA

TAF LRSV 191800Z 1918/2024 CNL


Example: see airport list